Bristol, New Hampshire
Current Conditions -  °F | °C
As of 11:55 PM on Friday 19 Dec 2014 (Local Time) from K1P1 Reporting Station
Clear Clear  
Wind Chill: 13°   Ceiling: Unl
Heat Index: 23°   Visibility: 10mi
Dew Point: 21°   Wind: 10mph
Humidity: 91%   Direction: 270°W
Pressure: 30.16"   Gusts: 16mph
Location:  43.6°N, 71.75°W
Report Text: K1P1 200455Z AUTO 27009G14KT 10SM CLR M05/M06 A3016 RMK AO2 T10481061
Loading
Personal Weather Stations






























Interactive Weather Map New forecast layout! Learn more

10-Day Weather Forecast

Advertisements
Track Severe Weather on mobile